Terminal Aerodrome Forecast
Issued by NWS Sterling, VA

Home | Current Version | Previous Version | Text Only | Print | Product List | Glossary On
Versions: 1 2 3 4 5 6 7 8 9 10 11 12 13 14 15 16 17 18 19 20 21 22
062
FTUS41 KLWX 170731 AAA
TAFCHO
TAF AMD
KCHO 170731Z 1708/1806 18004KT 5SM BR SCT002 OVC020
      TEMPO 1708/1712 3SM BR BKN002
     FM171200 18004KT 4SM -SHRA BR OVC020
     FM171700 19008KT 6SM -SHRA BR OVC020
     FM172100 20010KT P6SM OVC015
     FM180000 20009KT P6SM BKN008=

USA.gov is the U.S. government's official web portal to all federal, state and local government web resources and services.